sensor_id;sensor_type;location;lat;lon;timestamp;P1;durP1;ratioP1;P2;durP2;ratioP2
25237;SDS011;13185;50.872;5.306;2023-04-24T00:02:20;7.07;;;5.25;;
25237;SDS011;13185;50.872;5.306;2023-04-24T00:04:45;13.07;;;5.97;;
25237;SDS011;13185;50.872;5.306;2023-04-24T00:07:11;7.43;;;5.97;;
25237;SDS011;13185;50.872;5.306;2023-04-24T00:09:38;6.90;;;5.90;;
25237;SDS011;13185;50.872;5.306;2023-04-24T00:12:03;13.60;;;6.07;;
25237;SDS011;13185;50.872;5.306;2023-04-24T00:14:32;9.52;;;6.45;;
25237;SDS011;13185;50.872;5.306;2023-04-24T00:17:00;11.68;;;6.75;;
25237;SDS011;13185;50.872;5.306;2023-04-24T00:19:26;10.23;;;6.55;;
25237;SDS011;13185;50.872;5.306;2023-04-24T00:21:52;10.38;;;6.82;;
25237;SDS011;13185;50.872;5.306;2023-04-24T00:24:17;12.88;;;6.60;;
25237;SDS011;13185;50.872;5.306;2023-04-24T00:26:43;9.25;;;6.78;;
25237;SDS011;13185;50.872;5.306;2023-04-24T00:29:09;11.27;;;6.60;;
25237;SDS011;13185;50.872;5.306;2023-04-24T00:31:34;13.27;;;7.97;;
25237;SDS011;13185;50.872;5.306;2023-04-24T00:34:03;11.43;;;7.43;;
25237;SDS011;13185;50.872;5.306;2023-04-24T00:36:30;11.73;;;6.93;;
25237;SDS011;13185;50.872;5.306;2023-04-24T00:38:56;13.23;;;7.82;;
25237;SDS011;13185;50.872;5.306;2023-04-24T00:41:22;11.40;;;7.60;;
25237;SDS011;13185;50.872;5.306;2023-04-24T00:43:49;12.60;;;8.10;;
25237;SDS011;13185;50.872;5.306;2023-04-24T00:46:15;15.68;;;7.60;;
25237;SDS011;13185;50.872;5.306;2023-04-24T00:48:41;13.02;;;8.15;;
25237;SDS011;13185;50.872;5.306;2023-04-24T00:51:08;11.55;;;7.57;;
25237;SDS011;13185;50.872;5.306;2023-04-24T00:53:34;13.07;;;8.18;;
25237;SDS011;13185;50.872;5.306;2023-04-24T00:56:00;13.80;;;8.20;;
25237;SDS011;13185;50.872;5.306;2023-04-24T00:58:27;16.67;;;7.82;;
25237;SDS011;13185;50.872;5.306;2023-04-24T01:00:53;12.60;;;7.63;;
25237;SDS011;13185;50.872;5.306;2023-04-24T01:03:24;13.38;;;7.72;;
25237;SDS011;13185;50.872;5.306;2023-04-24T01:05:51;23.33;;;9.48;;
25237;SDS011;13185;50.872;5.306;2023-04-24T01:08:19;12.00;;;7.20;;
25237;SDS011;13185;50.872;5.306;2023-04-24T01:10:48;15.63;;;7.72;;
25237;SDS011;13185;50.872;5.306;2023-04-24T01:13:18;15.05;;;7.80;;
25237;SDS011;13185;50.872;5.306;2023-04-24T01:15:45;14.70;;;7.65;;
25237;SDS011;13185;50.872;5.306;2023-04-24T01:18:10;12.82;;;6.95;;
25237;SDS011;13185;50.872;5.306;2023-04-24T01:20:37;13.63;;;7.57;;
25237;SDS011;13185;50.872;5.306;2023-04-24T01:23:08;14.02;;;7.95;;
25237;SDS011;13185;50.872;5.306;2023-04-24T01:25:34;12.90;;;7.57;;
25237;SDS011;13185;50.872;5.306;2023-04-24T01:28:00;11.88;;;7.15;;
25237;SDS011;13185;50.872;5.306;2023-04-24T01:30:26;11.25;;;7.20;;
25237;SDS011;13185;50.872;5.306;2023-04-24T01:32:52;14.90;;;7.30;;
25237;SDS011;13185;50.872;5.306;2023-04-24T01:35:18;14.43;;;7.38;;
25237;SDS011;13185;50.872;5.306;2023-04-24T01:37:45;11.23;;;7.47;;
25237;SDS011;13185;50.872;5.306;2023-04-24T01:40:10;12.70;;;7.00;;
25237;SDS011;13185;50.872;5.306;2023-04-24T01:42:36;16.80;;;7.80;;
25237;SDS011;13185;50.872;5.306;2023-04-24T01:45:03;10.85;;;7.63;;
25237;SDS011;13185;50.872;5.306;2023-04-24T01:47:33;11.40;;;7.18;;
25237;SDS011;13185;50.872;5.306;2023-04-24T01:49:58;13.55;;;7.10;;
25237;SDS011;13185;50.872;5.306;2023-04-24T01:52:24;17.50;;;8.15;;
25237;SDS011;13185;50.872;5.306;2023-04-24T01:54:49;9.65;;;7.28;;
25237;SDS011;13185;50.872;5.306;2023-04-24T01:57:16;14.18;;;7.55;;
25237;SDS011;13185;50.872;5.306;2023-04-24T01:59:42;13.90;;;7.55;;
25237;SDS011;13185;50.872;5.306;2023-04-24T02:02:07;15.88;;;7.97;;
25237;SDS011;13185;50.872;5.306;2023-04-24T02:04:34;11.80;;;7.32;;
25237;SDS011;13185;50.872;5.306;2023-04-24T02:06:59;12.57;;;7.50;;
25237;SDS011;13185;50.872;5.306;2023-04-24T02:09:25;13.13;;;7.65;;
25237;SDS011;13185;50.872;5.306;2023-04-24T02:11:51;13.52;;;7.63;;
25237;SDS011;13185;50.872;5.306;2023-04-24T02:14:17;14.55;;;7.97;;
25237;SDS011;13185;50.872;5.306;2023-04-24T02:16:42;12.82;;;7.60;;
25237;SDS011;13185;50.872;5.306;2023-04-24T02:19:09;12.98;;;8.15;;
25237;SDS011;13185;50.872;5.306;2023-04-24T02:21:35;14.18;;;7.18;;
25237;SDS011;13185;50.872;5.306;2023-04-24T02:24:00;12.38;;;7.38;;
25237;SDS011;13185;50.872;5.306;2023-04-24T02:26:26;12.43;;;8.00;;
25237;SDS011;13185;50.872;5.306;2023-04-24T02:28:52;13.60;;;7.75;;
25237;SDS011;13185;50.872;5.306;2023-04-24T02:31:19;13.77;;;7.57;;
25237;SDS011;13185;50.872;5.306;2023-04-24T02:33:46;14.48;;;8.07;;
25237;SDS011;13185;50.872;5.306;2023-04-24T02:36:12;11.13;;;7.03;;
25237;SDS011;13185;50.872;5.306;2023-04-24T02:38:38;12.60;;;8.20;;
25237;SDS011;13185;50.872;5.306;2023-04-24T02:41:04;13.65;;;7.63;;
25237;SDS011;13185;50.872;5.306;2023-04-24T02:43:31;14.75;;;6.78;;
25237;SDS011;13185;50.872;5.306;2023-04-24T02:45:58;13.68;;;6.80;;
25237;SDS011;13185;50.872;5.306;2023-04-24T02:48:24;11.05;;;7.18;;
25237;SDS011;13185;50.872;5.306;2023-04-24T02:50:50;12.23;;;7.40;;
25237;SDS011;13185;50.872;5.306;2023-04-24T02:53:16;12.27;;;7.13;;
25237;SDS011;13185;50.872;5.306;2023-04-24T02:55:41;9.15;;;6.45;;
25237;SDS011;13185;50.872;5.306;2023-04-24T02:58:07;9.80;;;6.93;;
25237;SDS011;13185;50.872;5.306;2023-04-24T03:00:33;11.45;;;7.43;;
25237;SDS011;13185;50.872;5.306;2023-04-24T03:02:58;12.27;;;7.43;;
25237;SDS011;13185;50.872;5.306;2023-04-24T03:05:24;10.25;;;7.72;;
25237;SDS011;13185;50.872;5.306;2023-04-24T03:07:50;15.65;;;8.30;;
25237;SDS011;13185;50.872;5.306;2023-04-24T03:10:17;12.57;;;7.75;;
25237;SDS011;13185;50.872;5.306;2023-04-24T03:12:43;10.50;;;6.50;;
25237;SDS011;13185;50.872;5.306;2023-04-24T03:15:09;10.07;;;7.07;;
25237;SDS011;13185;50.872;5.306;2023-04-24T03:17:36;10.98;;;7.15;;
25237;SDS011;13185;50.872;5.306;2023-04-24T03:20:02;12.43;;;7.93;;
25237;SDS011;13185;50.872;5.306;2023-04-24T03:22:31;10.02;;;7.10;;
25237;SDS011;13185;50.872;5.306;2023-04-24T03:25:00;10.75;;;7.60;;
25237;SDS011;13185;50.872;5.306;2023-04-24T03:27:25;10.38;;;7.30;;
25237;SDS011;13185;50.872;5.306;2023-04-24T03:29:58;12.65;;;7.40;;
25237;SDS011;13185;50.872;5.306;2023-04-24T03:32:32;11.82;;;7.82;;
25237;SDS011;13185;50.872;5.306;2023-04-24T03:34:59;11.98;;;7.40;;
25237;SDS011;13185;50.872;5.306;2023-04-24T03:37:24;12.02;;;7.50;;
25237;SDS011;13185;50.872;5.306;2023-04-24T03:40:01;10.55;;;6.95;;
25237;SDS011;13185;50.872;5.306;2023-04-24T03:42:28;12.07;;;7.00;;
25237;SDS011;13185;50.872;5.306;2023-04-24T03:44:55;10.85;;;6.90;;
25237;SDS011;13185;50.872;5.306;2023-04-24T03:47:23;12.65;;;7.57;;
25237;SDS011;13185;50.872;5.306;2023-04-24T03:49:51;9.00;;;6.97;;
25237;SDS011;13185;50.872;5.306;2023-04-24T03:52:17;10.95;;;6.90;;
25237;SDS011;13185;50.872;5.306;2023-04-24T03:54:43;14.45;;;7.50;;
25237;SDS011;13185;50.872;5.306;2023-04-24T03:57:10;11.48;;;7.35;;
25237;SDS011;13185;50.872;5.306;2023-04-24T03:59:39;11.50;;;6.88;;
25237;SDS011;13185;50.872;5.306;2023-04-24T04:02:16;12.05;;;6.82;;
25237;SDS011;13185;50.872;5.306;2023-04-24T04:04:42;12.55;;;7.50;;
25237;SDS011;13185;50.872;5.306;2023-04-24T04:07:07;11.93;;;6.38;;
25237;SDS011;13185;50.872;5.306;2023-04-24T04:09:34;10.63;;;5.95;;
25237;SDS011;13185;50.872;5.306;2023-04-24T04:11:59;8.13;;;5.88;;
25237;SDS011;13185;50.872;5.306;2023-04-24T04:14:26;8.98;;;6.82;;
25237;SDS011;13185;50.872;5.306;2023-04-24T04:16:52;7.93;;;5.75;;
25237;SDS011;13185;50.872;5.306;2023-04-24T04:19:19;9.25;;;5.63;;
25237;SDS011;13185;50.872;5.306;2023-04-24T04:21:44;7.07;;;6.28;;
25237;SDS011;13185;50.872;5.306;2023-04-24T04:24:23;9.45;;;5.53;;
25237;SDS011;13185;50.872;5.306;2023-04-24T04:26:50;9.52;;;6.28;;
25237;SDS011;13185;50.872;5.306;2023-04-24T04:29:35;8.80;;;6.10;;
25237;SDS011;13185;50.872;5.306;2023-04-24T04:32:03;9.02;;;6.63;;
25237;SDS011;13185;50.872;5.306;2023-04-24T04:34:29;9.20;;;6.45;;
25237;SDS011;13185;50.872;5.306;2023-04-24T04:36:57;10.52;;;6.13;;
25237;SDS011;13185;50.872;5.306;2023-04-24T04:39:43;11.02;;;6.38;;
25237;SDS011;13185;50.872;5.306;2023-04-24T04:44:44;7.40;;;6.00;;
25237;SDS011;13185;50.872;5.306;2023-04-24T04:47:16;8.35;;;5.63;;
25237;SDS011;13185;50.872;5.306;2023-04-24T04:49:43;9.02;;;5.70;;
25237;SDS011;13185;50.872;5.306;2023-04-24T04:52:16;11.27;;;5.78;;
25237;SDS011;13185;50.872;5.306;2023-04-24T04:54:43;9.65;;;5.32;;
25237;SDS011;13185;50.872;5.306;2023-04-24T04:57:10;10.80;;;5.28;;
25237;SDS011;13185;50.872;5.306;2023-04-24T04:59:36;7.95;;;5.18;;
25237;SDS011;13185;50.872;5.306;2023-04-24T05:02:06;6.90;;;4.78;;
25237;SDS011;13185;50.872;5.306;2023-04-24T05:04:32;5.38;;;4.80;;
25237;SDS011;13185;50.872;5.306;2023-04-24T05:06:58;5.95;;;5.07;;
25237;SDS011;13185;50.872;5.306;2023-04-24T05:09:26;6.28;;;4.63;;
25237;SDS011;13185;50.872;5.306;2023-04-24T05:11:59;7.93;;;4.67;;
25237;SDS011;13185;50.872;5.306;2023-04-24T05:14:25;5.55;;;4.38;;
25237;SDS011;13185;50.872;5.306;2023-04-24T05:16:52;5.97;;;4.63;;
25237;SDS011;13185;50.872;5.306;2023-04-24T05:19:24;6.72;;;4.22;;
25237;SDS011;13185;50.872;5.306;2023-04-24T05:21:49;6.90;;;4.50;;
25237;SDS011;13185;50.872;5.306;2023-04-24T05:24:15;4.88;;;3.90;;
25237;SDS011;13185;50.872;5.306;2023-04-24T05:26:45;5.25;;;4.00;;
25237;SDS011;13185;50.872;5.306;2023-04-24T05:29:13;7.05;;;4.30;;
25237;SDS011;13185;50.872;5.306;2023-04-24T05:31:38;7.05;;;4.22;;
25237;SDS011;13185;50.872;5.306;2023-04-24T05:34:04;4.82;;;3.67;;
25237;SDS011;13185;50.872;5.306;2023-04-24T05:36:31;7.55;;;4.60;;
25237;SDS011;13185;50.872;5.306;2023-04-24T05:38:57;4.43;;;3.40;;
25237;SDS011;13185;50.872;5.306;2023-04-24T05:41:22;4.57;;;3.50;;
25237;SDS011;13185;50.872;5.306;2023-04-24T05:43:48;4.68;;;3.28;;
25237;SDS011;13185;50.872;5.306;2023-04-24T05:46:14;7.25;;;3.10;;
25237;SDS011;13185;50.872;5.306;2023-04-24T05:48:39;3.17;;;2.88;;
25237;SDS011;13185;50.872;5.306;2023-04-24T05:51:05;2.95;;;2.60;;
25237;SDS011;13185;50.872;5.306;2023-04-24T05:53:30;4.78;;;2.90;;
25237;SDS011;13185;50.872;5.306;2023-04-24T05:55:56;5.53;;;3.08;;
25237;SDS011;13185;50.872;5.306;2023-04-24T05:58:22;5.05;;;2.50;;
25237;SDS011;13185;50.872;5.306;2023-04-24T06:00:48;4.30;;;2.40;;
25237;SDS011;13185;50.872;5.306;2023-04-24T06:03:16;5.28;;;2.20;;
25237;SDS011;13185;50.872;5.306;2023-04-24T06:05:41;4.72;;;2.42;;
25237;SDS011;13185;50.872;5.306;2023-04-24T06:08:07;6.07;;;2.75;;
25237;SDS011;13185;50.872;5.306;2023-04-24T06:10:36;5.18;;;2.45;;
25237;SDS011;13185;50.872;5.306;2023-04-24T06:13:03;5.80;;;2.85;;
25237;SDS011;13185;50.872;5.306;2023-04-24T06:15:31;11.68;;;3.42;;
25237;SDS011;13185;50.872;5.306;2023-04-24T06:18:02;8.30;;;4.35;;
25237;SDS011;13185;50.872;5.306;2023-04-24T06:20:28;12.15;;;4.00;;
25237;SDS011;13185;50.872;5.306;2023-04-24T06:22:53;5.15;;;4.55;;
25237;SDS011;13185;50.872;5.306;2023-04-24T06:25:19;6.38;;;5.03;;
25237;SDS011;13185;50.872;5.306;2023-04-24T06:27:45;8.88;;;5.60;;
25237;SDS011;13185;50.872;5.306;2023-04-24T06:30:11;8.52;;;5.28;;
25237;SDS011;13185;50.872;5.306;2023-04-24T06:32:37;10.52;;;5.50;;
25237;SDS011;13185;50.872;5.306;2023-04-24T06:35:03;10.30;;;5.15;;
25237;SDS011;13185;50.872;5.306;2023-04-24T06:37:29;10.20;;;5.53;;
25237;SDS011;13185;50.872;5.306;2023-04-24T06:39:54;9.50;;;4.80;;
25237;SDS011;13185;50.872;5.306;2023-04-24T06:42:20;5.80;;;4.60;;
25237;SDS011;13185;50.872;5.306;2023-04-24T06:44:48;7.03;;;4.72;;
25237;SDS011;13185;50.872;5.306;2023-04-24T06:47:14;7.15;;;4.60;;
25237;SDS011;13185;50.872;5.306;2023-04-24T06:49:40;7.68;;;5.50;;
25237;SDS011;13185;50.872;5.306;2023-04-24T06:52:06;8.10;;;5.25;;
25237;SDS011;13185;50.872;5.306;2023-04-24T06:54:32;10.85;;;5.97;;
25237;SDS011;13185;50.872;5.306;2023-04-24T06:56:58;10.43;;;5.68;;
25237;SDS011;13185;50.872;5.306;2023-04-24T06:59:25;8.63;;;5.65;;
25237;SDS011;13185;50.872;5.306;2023-04-24T07:01:52;10.27;;;6.20;;
25237;SDS011;13185;50.872;5.306;2023-04-24T07:04:17;8.25;;;6.13;;
25237;SDS011;13185;50.872;5.306;2023-04-24T07:06:44;11.52;;;6.38;;
25237;SDS011;13185;50.872;5.306;2023-04-24T07:09:11;12.27;;;5.95;;
25237;SDS011;13185;50.872;5.306;2023-04-24T07:11:38;10.85;;;6.53;;
25237;SDS011;13185;50.872;5.306;2023-04-24T07:14:06;12.27;;;6.65;;
25237;SDS011;13185;50.872;5.306;2023-04-24T07:16:32;10.27;;;6.65;;
25237;SDS011;13185;50.872;5.306;2023-04-24T07:18:57;8.35;;;6.30;;
25237;SDS011;13185;50.872;5.306;2023-04-24T07:21:23;11.27;;;6.22;;
25237;SDS011;13185;50.872;5.306;2023-04-24T07:23:48;10.38;;;6.55;;
25237;SDS011;13185;50.872;5.306;2023-04-24T07:26:14;11.02;;;6.82;;
25237;SDS011;13185;50.872;5.306;2023-04-24T07:28:40;9.77;;;6.55;;
25237;SDS011;13185;50.872;5.306;2023-04-24T07:31:06;10.82;;;6.00;;
25237;SDS011;13185;50.872;5.306;2023-04-24T07:33:33;11.00;;;6.40;;
25237;SDS011;13185;50.872;5.306;2023-04-24T07:35:59;7.80;;;6.85;;
25237;SDS011;13185;50.872;5.306;2023-04-24T07:38:25;9.18;;;6.43;;
25237;SDS011;13185;50.872;5.306;2023-04-24T07:40:51;17.60;;;6.80;;
25237;SDS011;13185;50.872;5.306;2023-04-24T07:43:17;12.93;;;7.63;;
25237;SDS011;13185;50.872;5.306;2023-04-24T07:45:42;9.77;;;7.40;;
25237;SDS011;13185;50.872;5.306;2023-04-24T07:48:08;11.63;;;7.22;;
25237;SDS011;13185;50.872;5.306;2023-04-24T07:50:34;11.77;;;8.10;;
25237;SDS011;13185;50.872;5.306;2023-04-24T07:53:01;13.90;;;8.38;;
25237;SDS011;13185;50.872;5.306;2023-04-24T07:55:26;14.50;;;7.90;;
25237;SDS011;13185;50.872;5.306;2023-04-24T07:57:52;12.93;;;8.07;;
25237;SDS011;13185;50.872;5.306;2023-04-24T08:00:17;11.35;;;8.23;;
25237;SDS011;13185;50.872;5.306;2023-04-24T08:02:43;12.38;;;8.00;;
25237;SDS011;13185;50.872;5.306;2023-04-24T08:05:09;17.05;;;8.50;;
25237;SDS011;13185;50.872;5.306;2023-04-24T08:07:34;12.02;;;8.32;;
25237;SDS011;13185;50.872;5.306;2023-04-24T08:10:01;14.93;;;8.18;;
25237;SDS011;13185;50.872;5.306;2023-04-24T08:12:28;16.58;;;8.80;;
25237;SDS011;13185;50.872;5.306;2023-04-24T08:14:54;13.80;;;7.97;;
25237;SDS011;13185;50.872;5.306;2023-04-24T08:17:20;13.02;;;7.60;;
25237;SDS011;13185;50.872;5.306;2023-04-24T08:19:45;11.20;;;7.00;;
25237;SDS011;13185;50.872;5.306;2023-04-24T08:22:16;10.13;;;5.97;;
25237;SDS011;13185;50.872;5.306;2023-04-24T08:24:42;9.82;;;5.90;;
25237;SDS011;13185;50.872;5.306;2023-04-24T08:27:08;14.57;;;7.10;;
25237;SDS011;13185;50.872;5.306;2023-04-24T08:29:34;13.23;;;6.78;;
25237;SDS011;13185;50.872;5.306;2023-04-24T08:32:00;9.90;;;5.78;;
25237;SDS011;13185;50.872;5.306;2023-04-24T08:34:25;8.55;;;5.75;;
25237;SDS011;13185;50.872;5.306;2023-04-24T08:36:51;10.27;;;5.68;;
25237;SDS011;13185;50.872;5.306;2023-04-24T08:39:16;9.98;;;5.45;;
25237;SDS011;13185;50.872;5.306;2023-04-24T08:41:43;7.72;;;5.18;;
25237;SDS011;13185;50.872;5.306;2023-04-24T08:44:10;9.65;;;4.35;;
25237;SDS011;13185;50.872;5.306;2023-04-24T08:46:38;11.70;;;4.30;;
25237;SDS011;13185;50.872;5.306;2023-04-24T08:49:04;10.38;;;4.22;;
25237;SDS011;13185;50.872;5.306;2023-04-24T08:51:30;6.20;;;3.97;;
25237;SDS011;13185;50.872;5.306;2023-04-24T08:53:56;10.38;;;4.20;;
25237;SDS011;13185;50.872;5.306;2023-04-24T08:56:22;8.82;;;3.88;;
25237;SDS011;13185;50.872;5.306;2023-04-24T08:58:51;13.27;;;4.65;;
25237;SDS011;13185;50.872;5.306;2023-04-24T09:01:19;10.77;;;3.92;;
25237;SDS011;13185;50.872;5.306;2023-04-24T09:03:46;7.97;;;3.80;;
25237;SDS011;13185;50.872;5.306;2023-04-24T09:06:13;10.38;;;3.53;;
25237;SDS011;13185;50.872;5.306;2023-04-24T09:08:41;7.32;;;3.83;;
25237;SDS011;13185;50.872;5.306;2023-04-24T09:11:08;5.18;;;3.22;;
25237;SDS011;13185;50.872;5.306;2023-04-24T09:13:36;8.02;;;3.47;;
25237;SDS011;13185;50.872;5.306;2023-04-24T09:16:02;7.03;;;3.05;;
25237;SDS011;13185;50.872;5.306;2023-04-24T09:18:27;10.60;;;3.47;;
25237;SDS011;13185;50.872;5.306;2023-04-24T09:23:26;8.73;;;3.63;;
25237;SDS011;13185;50.872;5.306;2023-04-24T09:25:56;13.50;;;4.75;;
25237;SDS011;13185;50.872;5.306;2023-04-24T09:28:30;12.40;;;4.63;;
25237;SDS011;13185;50.872;5.306;2023-04-24T09:31:12;14.93;;;5.93;;
25237;SDS011;13185;50.872;5.306;2023-04-24T09:33:59;13.95;;;4.88;;
25237;SDS011;13185;50.872;5.306;2023-04-24T09:39:06;14.45;;;5.18;;
25237;SDS011;13185;50.872;5.306;2023-04-24T09:44:34;10.63;;;4.50;;
25237;SDS011;13185;50.872;5.306;2023-04-24T09:46:59;10.02;;;4.70;;
25237;SDS011;13185;50.872;5.306;2023-04-24T09:49:26;9.77;;;4.63;;
25237;SDS011;13185;50.872;5.306;2023-04-24T09:52:05;10.98;;;4.63;;
25237;SDS011;13185;50.872;5.306;2023-04-24T09:54:32;9.60;;;4.18;;
25237;SDS011;13185;50.872;5.306;2023-04-24T09:56:58;7.50;;;3.83;;
25237;SDS011;13185;50.872;5.306;2023-04-24T09:59:25;11.38;;;4.43;;
25237;SDS011;13185;50.872;5.306;2023-04-24T10:01:50;10.07;;;4.38;;
25237;SDS011;13185;50.872;5.306;2023-04-24T10:04:24;12.38;;;4.43;;
25237;SDS011;13185;50.872;5.306;2023-04-24T10:09:18;9.80;;;3.53;;
25237;SDS011;13185;50.872;5.306;2023-04-24T10:11:45;10.38;;;4.72;;
25237;SDS011;13185;50.872;5.306;2023-04-24T10:14:13;9.13;;;3.78;;
25237;SDS011;13185;50.872;5.306;2023-04-24T10:16:40;15.55;;;4.60;;
25237;SDS011;13185;50.872;5.306;2023-04-24T10:19:07;9.70;;;3.67;;
25237;SDS011;13185;50.872;5.306;2023-04-24T10:21:33;7.82;;;3.47;;
25237;SDS011;13185;50.872;5.306;2023-04-24T10:24:00;12.10;;;4.03;;
25237;SDS011;13185;50.872;5.306;2023-04-24T10:26:28;8.93;;;3.80;;
25237;SDS011;13185;50.872;5.306;2023-04-24T10:28:54;12.23;;;3.92;;
25237;SDS011;13185;50.872;5.306;2023-04-24T10:31:23;10.13;;;3.55;;
25237;SDS011;13185;50.872;5.306;2023-04-24T10:33:49;12.60;;;4.10;;
25237;SDS011;13185;50.872;5.306;2023-04-24T10:36:16;9.43;;;3.85;;
25237;SDS011;13185;50.872;5.306;2023-04-24T10:38:43;10.65;;;3.97;;
25237;SDS011;13185;50.872;5.306;2023-04-24T10:41:12;7.47;;;4.20;;
25237;SDS011;13185;50.872;5.306;2023-04-24T10:43:45;9.27;;;3.65;;
25237;SDS011;13185;50.872;5.306;2023-04-24T10:46:11;11.07;;;4.38;;
25237;SDS011;13185;50.872;5.306;2023-04-24T10:48:52;9.80;;;3.65;;
25237;SDS011;13185;50.872;5.306;2023-04-24T10:51:21;9.82;;;4.32;;
25237;SDS011;13185;50.872;5.306;2023-04-24T10:53:48;11.02;;;4.10;;
25237;SDS011;13185;50.872;5.306;2023-04-24T10:56:15;9.05;;;3.80;;
25237;SDS011;13185;50.872;5.306;2023-04-24T10:58:51;13.07;;;4.15;;
25237;SDS011;13185;50.872;5.306;2023-04-24T11:01:25;6.50;;;3.00;;
25237;SDS011;13185;50.872;5.306;2023-04-24T11:03:58;6.88;;;3.10;;
25237;SDS011;13185;50.872;5.306;2023-04-24T11:06:31;7.40;;;3.03;;
25237;SDS011;13185;50.872;5.306;2023-04-24T11:09:03;4.95;;;2.38;;
25237;SDS011;13185;50.872;5.306;2023-04-24T11:11:31;5.90;;;2.33;;
25237;SDS011;13185;50.872;5.306;2023-04-24T11:16:28;7.38;;;3.05;;
25237;SDS011;13185;50.872;5.306;2023-04-24T11:21:48;13.68;;;3.10;;
25237;SDS011;13185;50.872;5.306;2023-04-24T11:29:38;6.72;;;2.40;;
25237;SDS011;13185;50.872;5.306;2023-04-24T11:32:16;7.22;;;2.85;;
25237;SDS011;13185;50.872;5.306;2023-04-24T11:34:47;7.03;;;3.05;;
25237;SDS011;13185;50.872;5.306;2023-04-24T11:37:16;7.25;;;2.33;;
25237;SDS011;13185;50.872;5.306;2023-04-24T11:39:42;7.75;;;2.80;;
25237;SDS011;13185;50.872;5.306;2023-04-24T11:42:08;4.85;;;2.45;;
25237;SDS011;13185;50.872;5.306;2023-04-24T11:44:35;6.35;;;2.42;;
25237;SDS011;13185;50.872;5.306;2023-04-24T11:47:04;6.88;;;3.00;;
25237;SDS011;13185;50.872;5.306;2023-04-24T11:49:32;5.93;;;2.55;;
25237;SDS011;13185;50.872;5.306;2023-04-24T11:51:57;6.20;;;2.50;;
25237;SDS011;13185;50.872;5.306;2023-04-24T11:54:25;5.88;;;2.42;;
25237;SDS011;13185;50.872;5.306;2023-04-24T11:56:51;5.47;;;2.55;;
25237;SDS011;13185;50.872;5.306;2023-04-24T11:59:17;7.75;;;2.67;;
25237;SDS011;13185;50.872;5.306;2023-04-24T12:01:45;4.95;;;2.42;;
25237;SDS011;13185;50.872;5.306;2023-04-24T12:04:12;3.33;;;2.00;;
25237;SDS011;13185;50.872;5.306;2023-04-24T12:06:38;6.15;;;2.53;;
25237;SDS011;13185;50.872;5.306;2023-04-24T12:09:04;6.20;;;2.58;;
25237;SDS011;13185;50.872;5.306;2023-04-24T12:11:29;5.20;;;2.70;;
25237;SDS011;13185;50.872;5.306;2023-04-24T12:13:55;4.68;;;2.50;;
25237;SDS011;13185;50.872;5.306;2023-04-24T12:16:21;5.20;;;2.38;;
25237;SDS011;13185;50.872;5.306;2023-04-24T12:18:46;5.10;;;2.42;;
25237;SDS011;13185;50.872;5.306;2023-04-24T12:21:19;5.25;;;2.60;;
25237;SDS011;13185;50.872;5.306;2023-04-24T12:23:46;6.97;;;2.85;;
25237;SDS011;13185;50.872;5.306;2023-04-24T12:26:16;11.15;;;2.60;;
25237;SDS011;13185;50.872;5.306;2023-04-24T12:28:45;12.10;;;2.78;;
25237;SDS011;13185;50.872;5.306;2023-04-24T12:31:13;5.13;;;2.33;;
25237;SDS011;13185;50.872;5.306;2023-04-24T12:33:39;8.18;;;3.45;;
25237;SDS011;13185;50.872;5.306;2023-04-24T12:36:04;6.57;;;2.20;;
25237;SDS011;13185;50.872;5.306;2023-04-24T12:38:31;5.82;;;2.35;;
25237;SDS011;13185;50.872;5.306;2023-04-24T12:41:08;6.50;;;2.08;;
25237;SDS011;13185;50.872;5.306;2023-04-24T12:43:35;5.03;;;2.78;;
25237;SDS011;13185;50.872;5.306;2023-04-24T12:46:01;7.63;;;2.95;;
25237;SDS011;13185;50.872;5.306;2023-04-24T12:48:28;7.18;;;3.20;;
25237;SDS011;13185;50.872;5.306;2023-04-24T12:50:54;5.10;;;2.85;;
25237;SDS011;13185;50.872;5.306;2023-04-24T12:53:21;5.63;;;2.47;;
25237;SDS011;13185;50.872;5.306;2023-04-24T12:55:47;5.53;;;3.05;;
25237;SDS011;13185;50.872;5.306;2023-04-24T12:58:18;6.47;;;3.03;;
25237;SDS011;13185;50.872;5.306;2023-04-24T13:00:45;3.92;;;2.97;;
25237;SDS011;13185;50.872;5.306;2023-04-24T13:03:11;5.80;;;3.05;;
25237;SDS011;13185;50.872;5.306;2023-04-24T13:05:37;7.82;;;2.97;;
25237;SDS011;13185;50.872;5.306;2023-04-24T13:08:03;6.00;;;2.90;;
25237;SDS011;13185;50.872;5.306;2023-04-24T13:10:29;4.30;;;3.00;;
25237;SDS011;13185;50.872;5.306;2023-04-24T13:12:54;7.53;;;3.28;;
25237;SDS011;13185;50.872;5.306;2023-04-24T13:15:20;4.65;;;2.45;;
25237;SDS011;13185;50.872;5.306;2023-04-24T13:17:46;6.25;;;2.47;;
25237;SDS011;13185;50.872;5.306;2023-04-24T13:20:11;5.32;;;2.80;;
25237;SDS011;13185;50.872;5.306;2023-04-24T13:22:37;7.18;;;2.63;;
25237;SDS011;13185;50.872;5.306;2023-04-24T13:25:02;4.75;;;2.63;;
25237;SDS011;13185;50.872;5.306;2023-04-24T13:27:31;6.13;;;2.50;;
25237;SDS011;13185;50.872;5.306;2023-04-24T13:29:56;5.95;;;2.50;;
25237;SDS011;13185;50.872;5.306;2023-04-24T13:32:22;4.32;;;2.50;;
25237;SDS011;13185;50.872;5.306;2023-04-24T13:34:47;4.90;;;2.45;;
25237;SDS011;13185;50.872;5.306;2023-04-24T13:37:13;3.92;;;2.40;;
25237;SDS011;13185;50.872;5.306;2023-04-24T13:39:40;6.07;;;2.20;;
25237;SDS011;13185;50.872;5.306;2023-04-24T13:42:06;4.50;;;1.98;;
25237;SDS011;13185;50.872;5.306;2023-04-24T13:44:32;4.45;;;2.25;;
25237;SDS011;13185;50.872;5.306;2023-04-24T13:46:57;7.75;;;2.03;;
25237;SDS011;13185;50.872;5.306;2023-04-24T13:49:23;7.93;;;2.50;;
25237;SDS011;13185;50.872;5.306;2023-04-24T13:51:53;5.88;;;2.58;;
25237;SDS011;13185;50.872;5.306;2023-04-24T13:54:19;3.90;;;2.22;;
25237;SDS011;13185;50.872;5.306;2023-04-24T13:56:45;4.93;;;2.92;;
25237;SDS011;13185;50.872;5.306;2023-04-24T13:59:12;7.22;;;2.30;;
25237;SDS011;13185;50.872;5.306;2023-04-24T14:01:37;4.78;;;1.83;;
25237;SDS011;13185;50.872;5.306;2023-04-24T14:04:03;4.60;;;2.00;;
25237;SDS011;13185;50.872;5.306;2023-04-24T14:06:29;4.43;;;2.40;;
25237;SDS011;13185;50.872;5.306;2023-04-24T14:08:56;3.33;;;1.90;;
25237;SDS011;13185;50.872;5.306;2023-04-24T14:11:21;5.50;;;1.90;;
25237;SDS011;13185;50.872;5.306;2023-04-24T14:13:47;6.18;;;2.67;;
25237;SDS011;13185;50.872;5.306;2023-04-24T14:16:13;5.15;;;2.20;;
25237;SDS011;13185;50.872;5.306;2023-04-24T14:18:39;4.28;;;2.13;;
25237;SDS011;13185;50.872;5.306;2023-04-24T14:21:05;5.00;;;2.58;;
25237;SDS011;13185;50.872;5.306;2023-04-24T14:23:30;4.20;;;2.15;;
25237;SDS011;13185;50.872;5.306;2023-04-24T14:25:56;8.38;;;2.20;;
25237;SDS011;13185;50.872;5.306;2023-04-24T14:28:23;5.68;;;2.30;;
25237;SDS011;13185;50.872;5.306;2023-04-24T14:30:49;5.05;;;2.53;;
25237;SDS011;13185;50.872;5.306;2023-04-24T14:33:15;3.92;;;1.90;;
25237;SDS011;13185;50.872;5.306;2023-04-24T14:35:41;4.88;;;2.35;;
25237;SDS011;13185;50.872;5.306;2023-04-24T14:38:08;4.28;;;2.13;;
25237;SDS011;13185;50.872;5.306;2023-04-24T14:40:34;4.43;;;2.33;;
25237;SDS011;13185;50.872;5.306;2023-04-24T14:42:59;5.80;;;2.50;;
25237;SDS011;13185;50.872;5.306;2023-04-24T14:45:25;4.45;;;2.00;;
25237;SDS011;13185;50.872;5.306;2023-04-24T14:47:51;4.47;;;1.70;;
25237;SDS011;13185;50.872;5.306;2023-04-24T14:50:17;4.88;;;1.92;;
25237;SDS011;13185;50.872;5.306;2023-04-24T14:52:43;3.38;;;2.08;;
25237;SDS011;13185;50.872;5.306;2023-04-24T14:55:09;3.92;;;2.50;;
25237;SDS011;13185;50.872;5.306;2023-04-24T14:57:34;6.85;;;2.70;;
25237;SDS011;13185;50.872;5.306;2023-04-24T15:00:01;4.88;;;2.38;;
25237;SDS011;13185;50.872;5.306;2023-04-24T15:02:30;5.65;;;2.60;;
25237;SDS011;13185;50.872;5.306;2023-04-24T15:04:56;3.58;;;2.28;;